OIBA  Abumusa Island Airport

Add Bookmark

Iran

Status IATA
Operational AEU
Latitude Longitude
25° 52' 32" N 55° 1' 58" E
25.875700 55.033001
Local (DST + 5) UTC (GMT + 4)
Dec 22, 2014 09:16 Dec 22, 2014 17:46
Sunrise-Sunset Local UTC
Begin Civil Twilight 06:06 02:36
Sunrise 06:31 03:01
Sunset 05:05 13:35
End Civil Twilight 05:30 14:00

Current Weather

METAR Observed MVFR
OIBA 221500Z 25018KT 5000 SA SKC 23/17 Q1012 Mon, Dec 22, 2014 @ 15:00 UTC
(2 Hours, 46 Minutes ago)
Marginal Visual Flight Rules
Wind Visibility Clouds Conditions
250° at 18 knots (33 kph) 5000 meters
  • Clear skies
  • Sand
Temperatures Readings Precipitation
Current Temp 23°C (73°F)
Dewpoint 17°C (63°F)
Humidity 69%
Altimeter 29.88"Hg
Sea Level Pressure 1012mb
Field Elevation 22.97'
None Recorded

Additional weather within a 92.6km radius of OIBA

Map ICAO Location
OIBS 49.4km W (274°)
OIBL 75.7km N (344°)
OMDB 76.9km S (154°)
OMSJ 77.8km S (141°)

24 Hour Weather History

Loading
-

24 Hour Weather Graphs

Loading
-

CheckWX.com is intended as a tool to help pilots better visualize weather data. It is not intended as a substitute for an official weather briefing obtained from a Flight Service Station. CheckWX.com does not meet the FAA requirements for an official pre-flight weather briefing. Therefore, it's important that pilots still call and obtain an official FSS pre-flight weather briefing.